Time;durP1;ratioP1;P1;durP2;ratioP2;P2;SDS_P1;SDS_P2;PMS_P1;PMS_P2;Temp;Humidity;BMP_temperature;BMP_pressure;BME280_temperature;BME280_humidity;BME280_pressure;Samples;Min_cycle;Max_cycle;Signal;HPM_P1;HPM_P2
2023/07/15 00:00:57;;;;;;;0.40;0.20;;;;;;;;;;4987608;28;20038;-82
2023/07/15 00:03:23;;;;;;;0.20;0.10;;;;;;;;;;4994951;28;20047;-85
2023/07/15 00:05:49;;;;;;;0.20;0.10;;;;;;;;;;5010785;28;20038;-84
2023/07/15 00:08:15;;;;;;;0.20;0.10;;;;;;;;;;4992992;28;20061;-82
2023/07/15 00:10:46;;;;;;;0.20;0.10;;;;;;;;;;4992225;28;20048;-82
2023/07/15 00:13:16;;;;;;;0.35;0.22;;;;;;;;;;4996750;28;20065;-83
2023/07/15 00:15:43;;;;;;;0.20;0.10;;;;;;;;;;5022228;23;20056;-84
2023/07/15 00:18:09;;;;;;;0.30;0.10;;;;;;;;;;5007825;28;20042;-85
2023/07/15 00:20:36;;;;;;;0.20;0.10;;;;;;;;;;4999076;28;20217;-83
2023/07/15 00:23:03;;;;;;;0.20;0.10;;;;;;;;;;5010939;28;20041;-85
2023/07/15 00:25:31;;;;;;;0.30;0.10;;;;;;;;;;5010799;28;20142;-82
2023/07/15 00:27:57;;;;;;;0.20;0.10;;;;;;;;;;5003753;28;20053;-81
2023/07/15 00:30:23;;;;;;;0.20;0.10;;;;;;;;;;4993564;28;20046;-83
2023/07/15 00:32:51;;;;;;;0.20;0.10;;;;;;;;;;4997961;28;20979;-82
2023/07/15 00:35:21;;;;;;;0.20;0.10;;;;;;;;;;5008989;28;20111;-83
2023/07/15 00:37:47;;;;;;;0.20;0.10;;;;;;;;;;4994385;28;20139;-81
2023/07/15 00:40:14;;;;;;;0.20;0.10;;;;;;;;;;4994325;28;20041;-82
2023/07/15 00:42:59;;;;;;;0.20;0.10;;;;;;;;;;4996575;28;20229;-83
2023/07/15 00:45:25;;;;;;;0.20;0.10;;;;;;;;;;4993275;28;20052;-81
2023/07/15 00:47:58;;;;;;;0.40;0.30;;;;;;;;;;5005598;28;20033;-82
2023/07/15 00:50:24;;;;;;;0.20;0.10;;;;;;;;;;5005296;28;20045;-81
2023/07/15 00:52:50;;;;;;;0.43;0.43;;;;;;;;;;4992357;28;20049;-81
2023/07/15 00:55:16;;;;;;;0.32;0.13;;;;;;;;;;5003849;28;20125;-81
2023/07/15 00:57:42;;;;;;;0.20;0.10;;;;;;;;;;5008538;28;20061;-80
2023/07/15 01:00:10;;;;;;;0.20;0.10;;;;;;;;;;5010561;28;20080;-82
2023/07/15 01:02:37;;;;;;;0.20;0.10;;;;;;;;;;4995332;28;20052;-81
2023/07/15 01:05:04;;;;;;;0.20;0.10;;;;;;;;;;4992794;28;20038;-82
2023/07/15 01:07:30;;;;;;;0.20;0.10;;;;;;;;;;5007418;28;20033;-84
2023/07/15 01:09:56;;;;;;;0.20;0.10;;;;;;;;;;5007962;28;20045;-83
2023/07/15 01:12:22;;;;;;;0.20;0.10;;;;;;;;;;5004782;28;20069;-85
2023/07/15 01:14:49;;;;;;;0.20;0.10;;;;;;;;;;4985400;28;20056;-82
2023/07/15 01:17:15;;;;;;;0.20;0.10;;;;;;;;;;4995264;28;20042;-83
2023/07/15 01:19:41;;;;;;;0.20;0.17;;;;;;;;;;5008593;28;20124;-83
2023/07/15 01:22:07;;;;;;;0.20;0.10;;;;;;;;;;5009317;28;20038;-83
2023/07/15 01:24:34;;;;;;;0.52;0.32;;;;;;;;;;5008632;28;20175;-81
2023/07/15 01:27:02;;;;;;;0.20;0.10;;;;;;;;;;4991880;28;20038;-81
2023/07/15 01:29:28;;;;;;;0.20;0.10;;;;;;;;;;4991670;28;20042;-83
2023/07/15 01:31:54;;;;;;;0.20;0.10;;;;;;;;;;5010868;28;20038;-82
2023/07/15 01:34:21;;;;;;;0.20;0.10;;;;;;;;;;5014249;28;20037;-83
2023/07/15 01:36:48;;;;;;;0.20;0.10;;;;;;;;;;5014275;28;20510;-82
2023/07/15 01:39:15;;;;;;;0.20;0.10;;;;;;;;;;5008883;28;20049;-83
2023/07/15 01:41:42;;;;;;;0.30;0.30;;;;;;;;;;5008646;28;20143;-82
2023/07/15 01:44:08;;;;;;;0.20;0.13;;;;;;;;;;5012084;28;20052;-83
2023/07/15 01:46:36;;;;;;;1.08;0.47;;;;;;;;;;5013012;28;20124;-82
2023/07/15 01:49:03;;;;;;;0.38;0.20;;;;;;;;;;4988106;28;20537;-82
2023/07/15 01:51:30;;;;;;;0.20;0.10;;;;;;;;;;5018015;28;20065;-82
2023/07/15 01:53:56;;;;;;;0.20;0.10;;;;;;;;;;5006875;28;20042;-83
2023/07/15 01:56:22;;;;;;;0.95;0.20;;;;;;;;;;4994672;28;20038;-82
2023/07/15 01:58:48;;;;;;;0.82;0.43;;;;;;;;;;4993372;28;20044;-85
2023/07/15 02:01:14;;;;;;;0.20;0.10;;;;;;;;;;4995331;28;20037;-82
2023/07/15 02:03:40;;;;;;;0.20;0.10;;;;;;;;;;5014972;28;20101;-84
2023/07/15 02:06:06;;;;;;;0.38;0.38;;;;;;;;;;5010816;28;20064;-82
2023/07/15 02:08:32;;;;;;;0.22;0.20;;;;;;;;;;4995891;28;20973;-83
2023/07/15 02:10:59;;;;;;;0.20;0.10;;;;;;;;;;5012191;28;20049;-82
2023/07/15 02:13:25;;;;;;;0.20;0.10;;;;;;;;;;4989971;28;20050;-84
2023/07/15 02:15:51;;;;;;;0.20;0.10;;;;;;;;;;5000470;28;20095;-83
2023/07/15 02:18:17;;;;;;;0.20;0.10;;;;;;;;;;5001506;28;20045;-82
2023/07/15 02:20:46;;;;;;;0.20;0.10;;;;;;;;;;5012072;28;20052;-84
2023/07/15 02:23:12;;;;;;;0.20;0.20;;;;;;;;;;5004963;28;20104;-82
2023/07/15 02:25:38;;;;;;;0.20;0.10;;;;;;;;;;5007798;28;20053;-83
2023/07/15 02:28:04;;;;;;;0.35;0.17;;;;;;;;;;4987100;28;20041;-83
2023/07/15 02:30:30;;;;;;;0.20;0.10;;;;;;;;;;5000316;28;20447;-82
2023/07/15 02:32:57;;;;;;;0.38;0.20;;;;;;;;;;5004498;28;20034;-81
2023/07/15 02:35:24;;;;;;;0.20;0.10;;;;;;;;;;4989584;28;20045;-83
2023/07/15 02:37:50;;;;;;;0.20;0.10;;;;;;;;;;5014507;28;20609;-82
2023/07/15 02:40:17;;;;;;;0.20;0.10;;;;;;;;;;5001185;28;20041;-85
2023/07/15 02:42:43;;;;;;;0.20;0.20;;;;;;;;;;5022175;28;20099;-83
2023/07/15 02:45:11;;;;;;;0.35;0.35;;;;;;;;;;5027437;28;20088;-83
2023/07/15 02:47:39;;;;;;;0.20;0.10;;;;;;;;;;5008341;28;20041;-83
2023/07/15 02:50:06;;;;;;;0.20;0.20;;;;;;;;;;5019188;28;20040;-81
2023/07/15 02:52:33;;;;;;;0.20;0.10;;;;;;;;;;5010322;28;20037;-80
2023/07/15 02:55:03;;;;;;;0.20;0.10;;;;;;;;;;4988373;28;20041;-82
2023/07/15 02:57:29;;;;;;;0.20;0.10;;;;;;;;;;5011322;28;20068;-83
2023/07/15 02:59:58;;;;;;;0.20;0.10;;;;;;;;;;5013090;28;20484;-82
2023/07/15 03:02:25;;;;;;;0.20;0.13;;;;;;;;;;5013120;28;20143;-82
2023/07/15 03:04:51;;;;;;;0.20;0.10;;;;;;;;;;5015890;28;20056;-81
2023/07/15 03:07:17;;;;;;;0.20;0.10;;;;;;;;;;5009054;28;20854;-82
2023/07/15 03:09:44;;;;;;;0.20;0.10;;;;;;;;;;5009818;28;20045;-82
2023/07/15 03:12:10;;;;;;;0.20;0.10;;;;;;;;;;4997462;28;20037;-82
2023/07/15 03:14:37;;;;;;;0.20;0.00;;;;;;;;;;5013337;28;20048;-81
2023/07/15 03:17:03;;;;;;;0.20;0.10;;;;;;;;;;4998863;28;20582;-83
2023/07/15 03:19:32;;;;;;;0.20;0.13;;;;;;;;;;4993352;28;20048;-81
2023/07/15 03:21:59;;;;;;;0.20;0.13;;;;;;;;;;5010900;28;20154;-82
2023/07/15 03:24:25;;;;;;;0.20;0.10;;;;;;;;;;5001087;28;20037;-81
2023/07/15 03:26:52;;;;;;;0.20;0.10;;;;;;;;;;5001385;28;20041;-81
2023/07/15 03:29:19;;;;;;;0.57;0.17;;;;;;;;;;4993390;28;20049;-82
2023/07/15 03:31:45;;;;;;;0.20;0.10;;;;;;;;;;4996364;28;20401;-81
2023/07/15 03:34:11;;;;;;;0.20;0.10;;;;;;;;;;5011898;28;20533;-86
2023/07/15 03:36:37;;;;;;;0.20;0.17;;;;;;;;;;5012724;28;20038;-86
2023/07/15 03:39:03;;;;;;;0.20;0.10;;;;;;;;;;5011137;28;20072;-84
2023/07/15 03:41:29;;;;;;;1.00;0.88;;;;;;;;;;5010800;28;20049;-84
2023/07/15 03:43:55;;;;;;;0.30;0.30;;;;;;;;;;5009904;28;20052;-81
2023/07/15 03:46:23;;;;;;;0.22;0.15;;;;;;;;;;4999206;28;20052;-85
2023/07/15 03:48:49;;;;;;;0.28;0.15;;;;;;;;;;4995101;28;20041;-81
2023/07/15 03:51:15;;;;;;;0.30;0.30;;;;;;;;;;4992206;28;22402;-83
2023/07/15 03:53:41;;;;;;;0.20;0.10;;;;;;;;;;5009562;28;20045;-81
2023/07/15 03:56:07;;;;;;;0.20;0.10;;;;;;;;;;5000311;28;20072;-82
2023/07/15 03:58:33;;;;;;;0.20;0.10;;;;;;;;;;4995899;28;20058;-82
2023/07/15 04:00:59;;;;;;;0.22;0.22;;;;;;;;;;4997939;28;20727;-83
2023/07/15 04:03:25;;;;;;;0.52;0.52;;;;;;;;;;4991197;28;20172;-83
2023/07/15 04:05:51;;;;;;;0.20;0.10;;;;;;;;;;4991531;28;20037;-80
2023/07/15 04:08:17;;;;;;;0.20;0.10;;;;;;;;;;4988227;28;20068;-84
2023/07/15 04:10:47;;;;;;;0.20;0.10;;;;;;;;;;4985998;28;20042;-83
2023/07/15 04:13:13;;;;;;;0.20;0.10;;;;;;;;;;4992706;28;21226;-82
2023/07/15 04:15:39;;;;;;;0.20;0.10;;;;;;;;;;5007480;28;20026;-83
2023/07/15 04:18:05;;;;;;;0.30;0.20;;;;;;;;;;4994584;28;20045;-83
2023/07/15 04:20:31;;;;;;;0.50;0.25;;;;;;;;;;4992191;28;20045;-83
2023/07/15 04:22:57;;;;;;;0.20;0.08;;;;;;;;;;5011770;28;20041;-84
2023/07/15 04:25:23;;;;;;;0.20;0.10;;;;;;;;;;4993832;28;20065;-84
2023/07/15 04:27:49;;;;;;;0.20;0.10;;;;;;;;;;4994577;28;20074;-81
2023/07/15 04:30:16;;;;;;;0.20;0.10;;;;;;;;;;5013186;28;20133;-82
2023/07/15 04:32:42;;;;;;;0.30;0.20;;;;;;;;;;4988843;28;20046;-85
2023/07/15 04:35:08;;;;;;;0.20;0.10;;;;;;;;;;4997293;28;20057;-83
2023/07/15 04:37:34;;;;;;;0.20;0.10;;;;;;;;;;5008922;28;21146;-84
2023/07/15 04:40:03;;;;;;;0.20;0.10;;;;;;;;;;5010588;28;20040;-82
2023/07/15 04:42:29;;;;;;;0.20;0.10;;;;;;;;;;5002809;28;20037;-83
2023/07/15 04:44:55;;;;;;;0.52;0.35;;;;;;;;;;5004243;28;20418;-83
2023/07/15 04:47:21;;;;;;;0.20;0.10;;;;;;;;;;5021587;28;20045;-83
2023/07/15 04:49:47;;;;;;;0.20;0.10;;;;;;;;;;5003690;28;20057;-82
2023/07/15 04:52:13;;;;;;;0.20;0.10;;;;;;;;;;5027763;28;20041;-83
2023/07/15 04:54:39;;;;;;;0.20;0.10;;;;;;;;;;5026639;28;20426;-87
2023/07/15 04:57:05;;;;;;;0.20;0.10;;;;;;;;;;5029998;28;20060;-82
2023/07/15 04:59:31;;;;;;;0.50;0.10;;;;;;;;;;5005303;28;20045;-82
2023/07/15 05:01:57;;;;;;;0.20;0.10;;;;;;;;;;5027434;28;20132;-85
2023/07/15 05:04:23;;;;;;;0.20;0.10;;;;;;;;;;5021464;28;20149;-81
2023/07/15 05:06:50;;;;;;;0.20;0.10;;;;;;;;;;5014628;28;20116;-82
2023/07/15 05:09:16;;;;;;;0.20;0.20;;;;;;;;;;5019913;28;20107;-81
2023/07/15 05:11:42;;;;;;;0.20;0.10;;;;;;;;;;5001366;28;20495;-82
2023/07/15 05:14:08;;;;;;;0.20;0.17;;;;;;;;;;4992384;28;20770;-84
2023/07/15 05:16:34;;;;;;;0.20;0.10;;;;;;;;;;5009553;28;21230;-83
2023/07/15 05:19:00;;;;;;;0.20;0.10;;;;;;;;;;5016234;28;20512;-82
2023/07/15 05:21:26;;;;;;;0.20;0.10;;;;;;;;;;5005020;28;20046;-87
2023/07/15 05:23:52;;;;;;;0.20;0.10;;;;;;;;;;4995307;28;20056;-81
2023/07/15 05:26:18;;;;;;;0.20;0.10;;;;;;;;;;5018552;28;20498;-81
2023/07/15 05:28:44;;;;;;;0.20;0.10;;;;;;;;;;4997843;28;20046;-82
2023/07/15 05:31:10;;;;;;;0.20;0.10;;;;;;;;;;5005538;28;20683;-83
2023/07/15 05:33:36;;;;;;;0.30;0.20;;;;;;;;;;5017455;28;20561;-84
2023/07/15 05:36:02;;;;;;;0.20;0.10;;;;;;;;;;5007865;28;20529;-84
2023/07/15 05:38:28;;;;;;;0.20;0.10;;;;;;;;;;5014554;28;20087;-82
2023/07/15 05:40:55;;;;;;;0.20;0.10;;;;;;;;;;5001603;28;21011;-82
2023/07/15 05:43:21;;;;;;;0.20;0.10;;;;;;;;;;5001221;28;20071;-83
2023/07/15 05:45:47;;;;;;;0.20;0.10;;;;;;;;;;4998664;28;20049;-82
2023/07/15 05:48:13;;;;;;;0.30;0.10;;;;;;;;;;5014475;28;20783;-83
2023/07/15 05:50:40;;;;;;;0.20;0.10;;;;;;;;;;5000007;28;20044;-85
2023/07/15 05:53:07;;;;;;;0.20;0.10;;;;;;;;;;4997345;28;20043;-84
2023/07/15 05:55:33;;;;;;;0.20;0.10;;;;;;;;;;5013294;28;20494;-80
2023/07/15 05:58:00;;;;;;;0.20;0.10;;;;;;;;;;5015771;28;20106;-81
2023/07/15 06:00:26;;;;;;;0.22;0.22;;;;;;;;;;5000808;28;20121;-82
2023/07/15 06:02:52;;;;;;;0.20;0.10;;;;;;;;;;5001491;28;20042;-84
2023/07/15 06:05:19;;;;;;;0.20;0.10;;;;;;;;;;5005340;28;20033;-84
2023/07/15 06:07:45;;;;;;;0.20;0.15;;;;;;;;;;5002278;28;20116;-83
2023/07/15 06:10:11;;;;;;;0.40;0.40;;;;;;;;;;5012367;28;20376;-82
2023/07/15 06:12:37;;;;;;;0.20;0.10;;;;;;;;;;4999870;28;20091;-82
2023/07/15 06:15:04;;;;;;;0.20;0.10;;;;;;;;;;5010382;22;20486;-87
2023/07/15 06:17:30;;;;;;;0.28;0.20;;;;;;;;;;5023863;28;20155;-84
2023/07/15 06:19:56;;;;;;;0.20;0.13;;;;;;;;;;5039453;28;20517;-84
2023/07/15 06:22:22;;;;;;;0.20;0.10;;;;;;;;;;5025487;28;20078;-85
2023/07/15 06:24:48;;;;;;;0.20;0.17;;;;;;;;;;5061551;28;20068;-88
2023/07/15 06:27:14;;;;;;;0.28;0.17;;;;;;;;;;5036135;28;20155;-85
2023/07/15 06:29:42;;;;;;;0.20;0.10;;;;;;;;;;5018001;28;20045;-84
2023/07/15 06:32:08;;;;;;;0.30;0.20;;;;;;;;;;5012282;28;20482;-85
2023/07/15 06:34:34;;;;;;;0.20;0.10;;;;;;;;;;5022933;28;20099;-84
2023/07/15 06:37:00;;;;;;;0.32;0.32;;;;;;;;;;5046747;28;20568;-88
2023/07/15 06:39:26;;;;;;;0.20;0.10;;;;;;;;;;5041465;28;20075;-82
2023/07/15 06:41:52;;;;;;;0.20;0.10;;;;;;;;;;5029353;28;20040;-81
2023/07/15 06:44:18;;;;;;;0.30;0.22;;;;;;;;;;5023168;28;20067;-79
2023/07/15 06:46:44;;;;;;;1.45;0.60;;;;;;;;;;5040638;28;20545;-82
2023/07/15 06:49:10;;;;;;;0.20;0.20;;;;;;;;;;5039510;28;20068;-84
2023/07/15 06:51:36;;;;;;;0.20;0.10;;;;;;;;;;5035520;28;20072;-81
2023/07/15 06:54:03;;;;;;;0.20;0.20;;;;;;;;;;5012233;28;20086;-82
2023/07/15 06:56:29;;;;;;;0.57;0.45;;;;;;;;;;5037934;28;20039;-83
2023/07/15 06:58:55;;;;;;;0.20;0.10;;;;;;;;;;5037802;28;20532;-84
2023/07/15 07:01:21;;;;;;;0.20;0.10;;;;;;;;;;5014728;28;20135;-83
2023/07/15 07:03:47;;;;;;;0.20;0.10;;;;;;;;;;5019847;28;20041;-81
2023/07/15 07:06:14;;;;;;;0.20;0.10;;;;;;;;;;5013058;28;20048;-82
2023/07/15 07:08:40;;;;;;;0.30;0.10;;;;;;;;;;5013929;28;20033;-83
2023/07/15 07:11:07;;;;;;;0.20;0.10;;;;;;;;;;5015817;28;20056;-82
2023/07/15 07:13:33;;;;;;;0.20;0.10;;;;;;;;;;5023101;28;20512;-84
2023/07/15 07:16:00;;;;;;;0.20;0.20;;;;;;;;;;5038349;28;20623;-83
2023/07/15 07:18:26;;;;;;;0.20;0.10;;;;;;;;;;5044301;28;20051;-85
2023/07/15 07:20:56;;;;;;;0.20;0.20;;;;;;;;;;5043116;28;20045;-83
2023/07/15 07:23:22;;;;;;;0.20;0.10;;;;;;;;;;5041307;28;20147;-82
2023/07/15 07:25:50;;;;;;;0.20;0.10;;;;;;;;;;5021234;28;20045;-83
2023/07/15 07:28:16;;;;;;;0.32;0.20;;;;;;;;;;5023331;28;20131;-83
2023/07/15 07:30:42;;;;;;;0.20;0.10;;;;;;;;;;5040513;28;20048;-83
2023/07/15 07:33:08;;;;;;;0.47;0.43;;;;;;;;;;5025415;28;20133;-83
2023/07/15 07:35:34;;;;;;;0.20;0.10;;;;;;;;;;5026803;28;20116;-83
2023/07/15 07:38:01;;;;;;;0.20;0.10;;;;;;;;;;5030755;28;20130;-86
2023/07/15 07:40:27;;;;;;;0.20;0.10;;;;;;;;;;5019630;28;20378;-82
2023/07/15 07:42:53;;;;;;;0.20;0.10;;;;;;;;;;5040104;28;20134;-84
2023/07/15 07:45:21;;;;;;;0.20;0.15;;;;;;;;;;5021441;28;20472;-83
2023/07/15 07:47:50;;;;;;;0.20;0.10;;;;;;;;;;5015116;28;20041;-86
2023/07/15 07:50:19;;;;;;;0.20;0.10;;;;;;;;;;5019136;28;20040;-84
2023/07/15 07:52:47;;;;;;;0.20;0.10;;;;;;;;;;5023455;28;20044;-82
2023/07/15 07:55:13;;;;;;;0.20;0.20;;;;;;;;;;5019372;28;20045;-83
2023/07/15 07:57:39;;;;;;;0.20;0.10;;;;;;;;;;5042571;28;20037;-86
2023/07/15 08:00:08;;;;;;;0.20;0.13;;;;;;;;;;5020332;28;20049;-85
2023/07/15 08:02:37;;;;;;;0.20;0.10;;;;;;;;;;5023125;28;20048;-86
2023/07/15 08:05:05;;;;;;;0.20;0.10;;;;;;;;;;5023149;28;20047;-83
2023/07/15 08:07:39;;;;;;;0.20;0.10;;;;;;;;;;5023398;28;20116;-86
2023/07/15 08:10:08;;;;;;;0.40;0.30;;;;;;;;;;5041710;28;20064;-82
2023/07/15 08:12:34;;;;;;;0.65;0.32;;;;;;;;;;5021342;28;20037;-85
2023/07/15 08:15:03;;;;;;;0.20;0.10;;;;;;;;;;5040514;28;20076;-84
2023/07/15 08:17:47;;;;;;;0.20;0.10;;;;;;;;;;5040069;28;20037;-84
2023/07/15 08:20:13;;;;;;;0.60;0.30;;;;;;;;;;5022644;28;20095;-82
2023/07/15 08:22:39;;;;;;;0.20;0.10;;;;;;;;;;5022549;28;20125;-84
2023/07/15 08:25:05;;;;;;;0.20;0.10;;;;;;;;;;5018497;28;20123;-82
2023/07/15 08:27:31;;;;;;;1.50;0.25;;;;;;;;;;5017225;28;20057;-82
2023/07/15 08:29:57;;;;;;;0.20;0.10;;;;;;;;;;5036621;28;20048;-83
2023/07/15 08:32:23;;;;;;;0.20;0.10;;;;;;;;;;5018467;28;20075;-79
2023/07/15 08:35:03;;;;;;;0.30;0.22;;;;;;;;;;5020766;28;20056;-83
2023/07/15 08:37:29;;;;;;;0.20;0.10;;;;;;;;;;5033722;28;20052;-81
2023/07/15 08:39:55;;;;;;;0.20;0.10;;;;;;;;;;5020282;28;20041;-83
2023/07/15 08:42:21;;;;;;;0.20;0.10;;;;;;;;;;5021784;28;20044;-84
2023/07/15 08:44:48;;;;;;;0.20;0.00;;;;;;;;;;5019353;28;21350;-84
2023/07/15 08:47:21;;;;;;;0.20;0.10;;;;;;;;;;5014189;28;20413;-84
2023/07/15 08:49:51;;;;;;;0.20;0.10;;;;;;;;;;5017104;28;20044;-84
2023/07/15 08:52:21;;;;;;;0.30;0.30;;;;;;;;;;5012266;28;20064;-82
2023/07/15 08:54:48;;;;;;;0.32;0.28;;;;;;;;;;5019181;28;20499;-83
2023/07/15 08:57:15;;;;;;;0.20;0.08;;;;;;;;;;5014465;28;20051;-83
2023/07/15 08:59:41;;;;;;;0.32;0.32;;;;;;;;;;5030892;28;20049;-87
2023/07/15 09:02:07;;;;;;;0.43;0.20;;;;;;;;;;5035739;28;20041;-84
2023/07/15 09:04:33;;;;;;;0.20;0.20;;;;;;;;;;5018104;28;20045;-83
2023/07/15 09:06:59;;;;;;;0.90;0.65;;;;;;;;;;5031211;28;20706;-80
2023/07/15 09:09:33;;;;;;;0.20;0.10;;;;;;;;;;5017591;28;20060;-84
2023/07/15 09:12:03;;;;;;;0.20;0.10;;;;;;;;;;5035621;28;20147;-83
2023/07/15 09:14:29;;;;;;;0.20;0.17;;;;;;;;;;5033682;28;21644;-84
2023/07/15 09:16:56;;;;;;;0.20;0.10;;;;;;;;;;5019375;28;20245;-85
2023/07/15 09:19:23;;;;;;;0.20;0.10;;;;;;;;;;5038750;28;20048;-83
2023/07/15 09:22:03;;;;;;;0.20;0.10;;;;;;;;;;5019956;28;20561;-83
2023/07/15 09:24:30;;;;;;;0.20;0.10;;;;;;;;;;5021170;28;20076;-83
2023/07/15 09:26:57;;;;;;;0.20;0.17;;;;;;;;;;5030960;28;20071;-83
2023/07/15 09:29:23;;;;;;;0.20;0.10;;;;;;;;;;5013772;28;20048;-83
2023/07/15 09:31:49;;;;;;;0.20;0.10;;;;;;;;;;5035831;28;20156;-84
2023/07/15 09:34:15;;;;;;;0.20;0.15;;;;;;;;;;5022763;28;20502;-83
2023/07/15 09:36:41;;;;;;;0.20;0.10;;;;;;;;;;5033401;28;20048;-83
2023/07/15 09:39:14;;;;;;;0.20;0.10;;;;;;;;;;5019775;28;20052;-83
2023/07/15 09:41:41;;;;;;;1.13;0.40;;;;;;;;;;5033667;28;20057;-84
2023/07/15 09:44:08;;;;;;;0.40;0.30;;;;;;;;;;5018928;28;20044;-84
2023/07/15 09:46:34;;;;;;;0.20;0.10;;;;;;;;;;5026913;28;20065;-83
2023/07/15 09:49:00;;;;;;;0.20;0.10;;;;;;;;;;5039676;28;21733;-83
2023/07/15 09:51:27;;;;;;;0.20;0.13;;;;;;;;;;5036671;28;20943;-84
2023/07/15 09:53:54;;;;;;;0.30;0.20;;;;;;;;;;5012481;28;20049;-83
2023/07/15 09:56:36;;;;;;;0.20;0.20;;;;;;;;;;5042333;28;20095;-83
2023/07/15 09:59:09;;;;;;;1.05;0.80;;;;;;;;;;5020796;28;20121;-83
2023/07/15 10:01:35;;;;;;;0.20;0.10;;;;;;;;;;5018127;28;20512;-86
2023/07/15 10:04:02;;;;;;;0.20;0.10;;;;;;;;;;5019038;28;20029;-83
2023/07/15 10:06:28;;;;;;;0.20;0.10;;;;;;;;;;5037058;28;20041;-84
2023/07/15 10:08:55;;;;;;;0.20;0.10;;;;;;;;;;5038942;28;20051;-84
2023/07/15 10:11:21;;;;;;;0.22;0.20;;;;;;;;;;5021925;28;20044;-83
2023/07/15 10:13:48;;;;;;;0.20;0.20;;;;;;;;;;5020035;28;20146;-84
2023/07/15 10:16:14;;;;;;;0.20;0.10;;;;;;;;;;5020620;28;20036;-83
2023/07/15 10:18:40;;;;;;;0.20;0.10;;;;;;;;;;5038568;28;20040;-84
2023/07/15 10:21:09;;;;;;;0.20;0.20;;;;;;;;;;5024292;28;20037;-85
2023/07/15 10:23:35;;;;;;;0.20;0.10;;;;;;;;;;5020318;28;21267;-83
2023/07/15 10:26:02;;;;;;;0.20;0.10;;;;;;;;;;5014422;28;20045;-83
2023/07/15 10:28:34;;;;;;;0.20;0.10;;;;;;;;;;5033548;28;20044;-85
2023/07/15 10:31:06;;;;;;;0.28;0.28;;;;;;;;;;5017742;28;20044;-86
2023/07/15 10:33:34;;;;;;;0.40;0.40;;;;;;;;;;5032481;28;20128;-85
2023/07/15 10:36:03;;;;;;;0.20;0.10;;;;;;;;;;5018121;28;20041;-82
2023/07/15 10:38:31;;;;;;;0.25;0.13;;;;;;;;;;5010736;28;20067;-82
2023/07/15 10:41:00;;;;;;;0.45;0.30;;;;;;;;;;5029527;28;20076;-82
2023/07/15 10:43:35;;;;;;;0.20;0.13;;;;;;;;;;5033857;28;20072;-84
2023/07/15 10:46:11;;;;;;;0.43;0.40;;;;;;;;;;5014328;28;20048;-83
2023/07/15 10:48:38;;;;;;;0.20;0.10;;;;;;;;;;5020211;28;20091;-82
2023/07/15 10:51:10;;;;;;;0.20;0.10;;;;;;;;;;5036625;28;20048;-85
2023/07/15 10:53:37;;;;;;;0.20;0.10;;;;;;;;;;5004883;28;20263;-82
2023/07/15 10:56:04;;;;;;;0.30;0.30;;;;;;;;;;5024190;28;20049;-82
2023/07/15 10:58:32;;;;;;;0.20;0.10;;;;;;;;;;5024740;28;20045;-83
2023/07/15 11:01:06;;;;;;;0.20;0.20;;;;;;;;;;5031834;28;20645;-82
2023/07/15 11:03:34;;;;;;;0.20;0.20;;;;;;;;;;5027377;28;20048;-83
2023/07/15 11:06:04;;;;;;;0.20;0.10;;;;;;;;;;5012121;28;20106;-82
2023/07/15 11:08:32;;;;;;;0.20;0.10;;;;;;;;;;5026625;28;20128;-84
2023/07/15 11:11:01;;;;;;;0.20;0.10;;;;;;;;;;5023693;28;20047;-82
2023/07/15 11:13:28;;;;;;;0.20;0.10;;;;;;;;;;5021328;28;20087;-80
2023/07/15 11:15:54;;;;;;;0.20;0.10;;;;;;;;;;5037598;28;20098;-82
2023/07/15 11:18:24;;;;;;;0.30;0.20;;;;;;;;;;5040400;28;20041;-83
2023/07/15 11:20:54;;;;;;;0.20;0.20;;;;;;;;;;5027269;28;20041;-83
2023/07/15 11:23:20;;;;;;;0.30;0.30;;;;;;;;;;5036599;28;20045;-82
2023/07/15 11:25:47;;;;;;;0.20;0.10;;;;;;;;;;5038074;28;20076;-81
2023/07/15 11:28:13;;;;;;;0.20;0.10;;;;;;;;;;5045298;28;20082;-81
2023/07/15 11:30:46;;;;;;;0.20;0.10;;;;;;;;;;5043754;28;20041;-84
2023/07/15 11:33:13;;;;;;;0.30;0.30;;;;;;;;;;5028031;28;20489;-84
2023/07/15 11:35:40;;;;;;;0.40;0.20;;;;;;;;;;5048697;28;20043;-81
2023/07/15 11:38:14;;;;;;;0.20;0.10;;;;;;;;;;5027885;28;20379;-82
2023/07/15 11:40:54;;;;;;;0.28;0.20;;;;;;;;;;5045728;28;20489;-82
2023/07/15 11:43:21;;;;;;;0.20;0.10;;;;;;;;;;5029598;28;20041;-81
2023/07/15 11:45:57;;;;;;;0.20;0.20;;;;;;;;;;5025850;28;20493;-81
2023/07/15 11:48:23;;;;;;;0.20;0.10;;;;;;;;;;5039163;28;20036;-83
2023/07/15 11:50:50;;;;;;;0.20;0.10;;;;;;;;;;5033237;28;20331;-83
2023/07/15 11:53:26;;;;;;;0.20;0.20;;;;;;;;;;5033472;28;20045;-83
2023/07/15 11:55:52;;;;;;;0.43;0.35;;;;;;;;;;5009878;28;20070;-83
2023/07/15 11:58:37;;;;;;;0.20;0.10;;;;;;;;;;5028044;28;20059;-81
2023/07/15 12:01:04;;;;;;;0.20;0.10;;;;;;;;;;5032535;28;20044;-81
2023/07/15 12:03:30;;;;;;;0.20;0.10;;;;;;;;;;5025032;28;20091;-82
2023/07/15 12:05:56;;;;;;;0.20;0.10;;;;;;;;;;5037248;28;20421;-81
2023/07/15 12:08:22;;;;;;;0.20;0.20;;;;;;;;;;5040142;28;20098;-82
2023/07/15 12:10:54;;;;;;;0.30;0.28;;;;;;;;;;5019401;28;20037;-82
2023/07/15 12:13:20;;;;;;;0.20;0.10;;;;;;;;;;5042114;28;20170;-81
2023/07/15 12:15:46;;;;;;;0.20;0.10;;;;;;;;;;5048968;22;20465;-81
2023/07/15 12:18:12;;;;;;;0.25;0.20;;;;;;;;;;5046452;28;20052;-84
2023/07/15 12:20:39;;;;;;;0.20;0.10;;;;;;;;;;5039525;28;20095;-81
2023/07/15 12:23:05;;;;;;;0.20;0.20;;;;;;;;;;5023978;28;20113;-82
2023/07/15 12:25:31;;;;;;;0.20;0.10;;;;;;;;;;5040068;28;20520;-84
2023/07/15 12:27:57;;;;;;;0.20;0.10;;;;;;;;;;5042689;28;20052;-80
2023/07/15 12:30:23;;;;;;;0.22;0.20;;;;;;;;;;5047912;28;20531;-84
2023/07/15 12:32:49;;;;;;;0.20;0.10;;;;;;;;;;5057751;28;20400;-83
2023/07/15 12:35:15;;;;;;;0.22;0.22;;;;;;;;;;5035850;28;20036;-83
2023/07/15 12:37:41;;;;;;;0.20;0.10;;;;;;;;;;5029764;28;20102;-83
2023/07/15 12:40:07;;;;;;;0.30;0.30;;;;;;;;;;5038124;28;20068;-84
2023/07/15 12:42:35;;;;;;;0.25;0.20;;;;;;;;;;5037227;28;20044;-84
2023/07/15 12:45:01;;;;;;;0.20;0.10;;;;;;;;;;5042951;28;20214;-84
2023/07/15 12:47:27;;;;;;;0.28;0.28;;;;;;;;;;5038763;28;20063;-84
2023/07/15 12:49:53;;;;;;;0.20;0.17;;;;;;;;;;5037388;28;20036;-84
2023/07/15 12:52:19;;;;;;;0.20;0.10;;;;;;;;;;5038222;28;22078;-86
2023/07/15 12:54:45;;;;;;;0.20;0.10;;;;;;;;;;5041608;28;20186;-87
2023/07/15 12:57:11;;;;;;;0.30;0.25;;;;;;;;;;5056984;28;20069;-82
2023/07/15 12:59:37;;;;;;;0.20;0.10;;;;;;;;;;5035702;28;20109;-84
2023/07/15 13:02:04;;;;;;;0.35;0.20;;;;;;;;;;5044317;28;20040;-83
2023/07/15 13:04:33;;;;;;;0.20;0.10;;;;;;;;;;5038716;28;20131;-84
2023/07/15 13:06:59;;;;;;;0.20;0.10;;;;;;;;;;5038288;28;20693;-84
2023/07/15 13:09:25;;;;;;;0.20;0.10;;;;;;;;;;5049012;28;20036;-83
2023/07/15 13:11:51;;;;;;;0.20;0.13;;;;;;;;;;5057006;28;20036;-82
2023/07/15 13:14:17;;;;;;;0.20;0.10;;;;;;;;;;5061436;28;20086;-82
2023/07/15 13:16:43;;;;;;;0.20;0.10;;;;;;;;;;5070273;28;20412;-85
2023/07/15 13:19:09;;;;;;;0.20;0.15;;;;;;;;;;5044187;28;20036;-88
2023/07/15 13:21:35;;;;;;;0.20;0.17;;;;;;;;;;5054870;28;20128;-84
2023/07/15 13:24:01;;;;;;;0.20;0.20;;;;;;;;;;5041901;28;20589;-82
2023/07/15 13:26:27;;;;;;;0.20;0.10;;;;;;;;;;5060866;28;20691;-84
2023/07/15 13:28:53;;;;;;;0.20;0.10;;;;;;;;;;5044516;28;20032;-83
2023/07/15 13:31:19;;;;;;;0.20;0.10;;;;;;;;;;5056444;28;20051;-82
2023/07/15 13:33:45;;;;;;;0.20;0.10;;;;;;;;;;5044190;28;20060;-82
2023/07/15 13:36:11;;;;;;;0.47;0.40;;;;;;;;;;5039935;28;20067;-87
2023/07/15 13:38:37;;;;;;;0.20;0.10;;;;;;;;;;5038716;28;20692;-84
2023/07/15 13:41:03;;;;;;;0.20;0.10;;;;;;;;;;5040169;28;20045;-83
2023/07/15 13:43:29;;;;;;;0.20;0.17;;;;;;;;;;5038382;28;20112;-85
2023/07/15 13:45:56;;;;;;;0.20;0.10;;;;;;;;;;5043478;28;20044;-85
2023/07/15 13:48:22;;;;;;;0.20;0.10;;;;;;;;;;5034976;28;20032;-86
2023/07/15 13:50:48;;;;;;;0.20;0.10;;;;;;;;;;5057545;28;20041;-83
2023/07/15 13:53:14;;;;;;;0.20;0.10;;;;;;;;;;5033018;28;20082;-80
2023/07/15 13:55:40;;;;;;;3.92;0.50;;;;;;;;;;5032836;28;20044;-86
2023/07/15 13:58:06;;;;;;;0.30;0.30;;;;;;;;;;5055400;28;20044;-86
2023/07/15 14:00:33;;;;;;;0.20;0.10;;;;;;;;;;5040605;28;20040;-84
2023/07/15 14:02:59;;;;;;;0.20;0.20;;;;;;;;;;5054648;28;20043;-85
2023/07/15 14:05:25;;;;;;;0.20;0.10;;;;;;;;;;5049339;28;20104;-86
2023/07/15 14:07:51;;;;;;;0.20;0.10;;;;;;;;;;5056952;28;20112;-81
2023/07/15 14:10:17;;;;;;;0.20;0.10;;;;;;;;;;5043261;28;20175;-85
2023/07/15 14:12:43;;;;;;;0.20;0.20;;;;;;;;;;5054836;28;20096;-86
2023/07/15 14:15:09;;;;;;;0.20;0.10;;;;;;;;;;5035322;28;20047;-85
2023/07/15 14:17:40;;;;;;;0.20;0.10;;;;;;;;;;5050751;28;20040;-83
2023/07/15 14:20:08;;;;;;;0.20;0.10;;;;;;;;;;5039699;28;20532;-82
2023/07/15 14:22:34;;;;;;;0.20;0.10;;;;;;;;;;5034321;28;20100;-86
2023/07/15 14:25:00;;;;;;;0.57;0.57;;;;;;;;;;5039045;28;20049;-85
2023/07/15 14:27:26;;;;;;;0.30;0.20;;;;;;;;;;5037640;28;20033;-83
2023/07/15 14:29:52;;;;;;;0.20;0.10;;;;;;;;;;5054299;28;20045;-87
2023/07/15 14:32:18;;;;;;;0.20;0.10;;;;;;;;;;5049960;28;20160;-85
2023/07/15 14:34:44;;;;;;;0.30;0.25;;;;;;;;;;5036151;28;20468;-83
2023/07/15 14:37:10;;;;;;;0.32;0.30;;;;;;;;;;5059183;28;20089;-84
2023/07/15 14:39:37;;;;;;;0.40;0.40;;;;;;;;;;5048591;28;20063;-86
2023/07/15 14:42:03;;;;;;;0.57;0.50;;;;;;;;;;5058641;28;20098;-85